createdAt,value
2024-01-09T00:00:09.281Z,62.61
2024-01-09T00:02:36.988Z,62.76
2024-01-09T00:05:04.691Z,62.81
2024-01-09T00:07:32.457Z,62.88
2024-01-09T00:10:00.179Z,62.80
2024-01-09T00:12:27.994Z,62.77
2024-01-09T00:14:55.676Z,62.55
2024-01-09T00:17:23.443Z,62.48
2024-01-09T00:19:51.337Z,62.55
2024-01-09T00:22:19.049Z,62.64
2024-01-09T00:24:46.714Z,62.55
2024-01-09T00:27:14.269Z,62.63
2024-01-09T00:29:42.061Z,62.17
2024-01-09T00:32:10.064Z,61.69
2024-01-09T00:34:37.848Z,61.25
2024-01-09T00:37:05.623Z,61.11
2024-01-09T00:39:33.191Z,60.86
2024-01-09T00:42:00.902Z,60.83
2024-01-09T00:44:28.665Z,60.94
2024-01-09T00:46:56.487Z,61.10
2024-01-09T00:49:24.137Z,61.45
2024-01-09T00:51:51.911Z,61.64
2024-01-09T00:54:19.574Z,61.94
2024-01-09T00:56:47.281Z,62.08
2024-01-09T00:59:15.125Z,62.19
2024-01-09T01:01:43.162Z,62.09
2024-01-09T01:04:10.763Z,62.07
2024-01-09T01:06:38.474Z,61.82
2024-01-09T01:09:06.033Z,61.95
2024-01-09T01:11:33.745Z,61.61
2024-01-09T01:14:01.353Z,61.29
2024-01-09T01:16:29.034Z,60.92
2024-01-09T01:18:56.680Z,60.77
2024-01-09T01:21:24.242Z,60.74
2024-01-09T01:23:52.321Z,61.07
2024-01-09T01:26:20.201Z,60.87
2024-01-09T01:28:47.747Z,60.76
2024-01-09T01:31:15.288Z,60.91
2024-01-09T01:33:42.932Z,60.62
2024-01-09T01:36:10.720Z,60.26
2024-01-09T01:38:38.288Z,60.07
2024-01-09T01:41:05.972Z,59.97
2024-01-09T01:43:33.695Z,59.88
2024-01-09T01:46:01.261Z,60.00
2024-01-09T01:48:29.050Z,60.27
2024-01-09T01:50:56.741Z,60.36
2024-01-09T01:53:24.375Z,60.36
2024-01-09T01:55:52.103Z,60.20
2024-01-09T01:58:19.683Z,60.26
2024-01-09T02:00:47.250Z,60.29
2024-01-09T02:03:14.910Z,60.32
2024-01-09T02:05:42.658Z,60.49
2024-01-09T02:08:10.455Z,60.30
2024-01-09T02:10:38.106Z,60.01
2024-01-09T02:13:05.747Z,59.50
2024-01-09T02:15:33.198Z,58.83
2024-01-09T02:18:00.941Z,57.96
2024-01-09T02:20:28.711Z,57.72
2024-01-09T02:22:56.390Z,58.19
2024-01-09T02:25:23.951Z,58.47
2024-01-09T02:27:51.564Z,58.19
2024-01-09T02:30:19.689Z,58.39
2024-01-09T02:32:47.456Z,58.54
2024-01-09T02:35:15.240Z,58.84
2024-01-09T02:37:42.854Z,59.12
2024-01-09T02:40:10.529Z,59.13
2024-01-09T02:42:38.087Z,59.29
2024-01-09T02:45:05.735Z,59.33
2024-01-09T02:47:33.411Z,58.91
2024-01-09T02:50:01.475Z,58.74
2024-01-09T02:52:29.138Z,58.57
2024-01-09T02:54:56.796Z,58.83
2024-01-09T02:57:24.380Z,58.84
2024-01-09T02:59:52.185Z,58.73
2024-01-09T03:02:19.979Z,58.86
2024-01-09T03:04:47.642Z,59.15
2024-01-09T03:07:15.598Z,59.23
2024-01-09T03:09:43.684Z,59.11
2024-01-09T03:12:11.259Z,59.01
2024-01-09T03:14:38.904Z,58.92
2024-01-09T03:17:06.576Z,59.10
2024-01-09T03:19:34.151Z,59.26
2024-01-09T03:22:01.800Z,59.41
2024-01-09T03:24:29.457Z,59.24
2024-01-09T03:26:57.017Z,59.09
2024-01-09T03:29:24.697Z,58.58
2024-01-09T03:31:52.740Z,58.53
2024-01-09T03:34:20.530Z,58.51
2024-01-09T03:36:48.170Z,58.05
2024-01-09T03:39:15.726Z,57.70
2024-01-09T03:41:43.423Z,56.82
2024-01-09T03:44:11.288Z,56.88
2024-01-09T03:46:39.013Z,56.72
2024-01-09T03:49:06.739Z,56.80
2024-01-09T03:51:34.742Z,56.87
2024-01-09T03:54:02.301Z,57.12
2024-01-09T03:56:29.961Z,57.26
2024-01-09T03:58:57.731Z,57.34
2024-01-09T04:01:25.405Z,57.26
2024-01-09T04:03:52.967Z,57.53
2024-01-09T04:06:20.796Z,57.84
2024-01-09T04:08:48.536Z,57.91
2024-01-09T04:11:16.813Z,57.90
2024-01-09T04:13:44.513Z,57.97
2024-01-09T04:16:12.075Z,58.03
2024-01-09T04:18:39.714Z,58.38
2024-01-09T04:21:07.556Z,58.26
2024-01-09T04:23:35.322Z,58.17
2024-01-09T04:26:02.918Z,58.20
2024-01-09T04:28:30.602Z,58.31
2024-01-09T04:30:58.278Z,58.40
2024-01-09T04:33:26.566Z,58.02
2024-01-09T04:35:54.439Z,57.75
2024-01-09T04:38:22.167Z,57.64
2024-01-09T04:40:49.802Z,57.73
2024-01-09T04:43:17.373Z,57.60
2024-01-09T04:45:45.062Z,57.57
2024-01-09T04:48:12.777Z,57.76
2024-01-09T04:50:40.646Z,57.64
2024-01-09T04:53:08.622Z,57.47
2024-01-09T04:55:35.973Z,57.40
2024-01-09T04:58:03.548Z,57.66
2024-01-09T05:00:31.158Z,57.66
2024-01-09T05:02:58.900Z,57.72
2024-01-09T05:05:26.790Z,57.70
2024-01-09T05:07:54.587Z,57.62
2024-01-09T05:10:22.179Z,57.65
2024-01-09T05:12:49.812Z,57.50
2024-01-09T05:15:17.469Z,57.51
2024-01-09T05:17:45.121Z,57.50
2024-01-09T05:20:12.951Z,57.41
2024-01-09T05:22:40.657Z,57.57
2024-01-09T05:25:08.321Z,57.28
2024-01-09T05:27:35.876Z,56.97
2024-01-09T05:30:03.601Z,56.95
2024-01-09T05:32:31.235Z,56.94
2024-01-09T05:34:58.962Z,56.72
2024-01-09T05:37:26.827Z,56.75
2024-01-09T05:39:54.492Z,56.78
2024-01-09T05:42:22.075Z,56.73
2024-01-09T05:44:49.824Z,56.89
2024-01-09T05:47:17.894Z,56.90
2024-01-09T05:49:45.670Z,57.07
2024-01-09T05:52:13.205Z,56.80
2024-01-09T05:54:40.866Z,56.81
2024-01-09T05:57:08.751Z,56.96
2024-01-09T05:59:38.316Z,56.65
2024-01-09T06:02:06.100Z,56.75
2024-01-09T06:04:33.670Z,56.75
2024-01-09T06:07:01.381Z,56.33
2024-01-09T06:09:28.999Z,56.34
2024-01-09T06:11:56.706Z,56.51
2024-01-09T06:14:24.547Z,56.18
2024-01-09T06:16:52.178Z,56.10
2024-01-09T06:19:20.150Z,55.47
2024-01-09T06:21:47.910Z,55.54
2024-01-09T06:24:15.474Z,55.41
2024-01-09T06:26:43.226Z,55.34
2024-01-09T06:29:11.041Z,55.53
2024-01-09T06:31:38.873Z,55.78
2024-01-09T06:34:06.505Z,56.59
2024-01-09T06:36:34.075Z,56.46
2024-01-09T06:39:01.675Z,57.17
2024-01-09T06:41:29.436Z,57.57
2024-01-09T06:43:57.168Z,57.47
2024-01-09T06:46:24.828Z,57.95
2024-01-09T06:48:52.458Z,58.66
2024-01-09T06:51:20.736Z,60.53
2024-01-09T06:53:48.446Z,60.22
2024-01-09T06:56:16.155Z,59.07
2024-01-09T06:58:43.967Z,59.43
2024-01-09T07:01:14.222Z,59.12
2024-01-09T07:03:42.707Z,58.11
2024-01-09T07:06:10.513Z,56.85
2024-01-09T07:08:38.215Z,56.00
2024-01-09T07:11:05.951Z,55.83
2024-01-09T07:13:33.511Z,55.60
2024-01-09T07:16:01.181Z,55.53
2024-01-09T07:18:28.885Z,55.35
2024-01-09T07:20:57.002Z,55.25
2024-01-09T07:23:24.578Z,55.14
2024-01-09T07:25:52.126Z,55.04
2024-01-09T07:28:19.772Z,55.36
2024-01-09T07:30:47.675Z,55.31
2024-01-09T07:33:15.637Z,55.41
2024-01-09T07:35:43.311Z,55.54
2024-01-09T07:38:11.106Z,55.64
2024-01-09T07:40:38.802Z,55.98
2024-01-09T07:43:06.769Z,55.63
2024-01-09T07:45:34.126Z,55.74
2024-01-09T07:48:01.969Z,55.55
2024-01-09T07:50:29.728Z,55.37
2024-01-09T07:52:57.538Z,55.41
2024-01-09T07:55:25.072Z,55.25
2024-01-09T07:57:52.739Z,54.70
2024-01-09T08:00:20.293Z,54.86
2024-01-09T08:02:48.012Z,54.88
2024-01-09T08:05:15.653Z,54.98
2024-01-09T08:07:43.291Z,55.17
2024-01-09T08:10:10.938Z,55.26
2024-01-09T08:12:38.502Z,55.10
2024-01-09T08:15:06.084Z,54.86
2024-01-09T08:17:33.812Z,54.99
2024-01-09T08:20:01.667Z,55.15
2024-01-09T08:22:29.389Z,55.37
2024-01-09T08:24:57.215Z,55.42
2024-01-09T08:27:25.196Z,55.52
2024-01-09T08:29:52.926Z,55.57
2024-01-09T08:32:20.649Z,55.61
2024-01-09T08:34:48.494Z,54.92
2024-01-09T08:37:16.123Z,55.52
2024-01-09T08:39:43.787Z,55.37
2024-01-09T08:42:11.363Z,56.56
2024-01-09T08:44:39.019Z,55.55
2024-01-09T08:47:07.081Z,55.16
2024-01-09T08:49:34.787Z,55.58
2024-01-09T08:52:02.409Z,55.76
2024-01-09T08:54:30.093Z,55.65
2024-01-09T08:56:57.740Z,55.59
2024-01-09T08:59:25.573Z,55.36
2024-01-09T09:01:53.473Z,55.20
2024-01-09T09:04:21.125Z,55.03
2024-01-09T09:06:48.885Z,54.96
2024-01-09T09:09:17.071Z,54.69
2024-01-09T09:11:44.645Z,54.35
2024-01-09T09:14:12.460Z,53.86
2024-01-09T09:16:42.992Z,53.97
2024-01-09T09:19:11.840Z,54.09
2024-01-09T09:21:39.580Z,53.90
2024-01-09T09:24:07.253Z,53.46
2024-01-09T09:26:35.116Z,53.34
2024-01-09T09:29:11.883Z,53.22
2024-01-09T09:31:47.524Z,53.60
2024-01-09T09:34:15.137Z,54.76
2024-01-09T09:36:42.960Z,55.60
2024-01-09T09:39:10.509Z,54.30
2024-01-09T09:41:38.239Z,53.51
2024-01-09T09:44:05.930Z,53.41
2024-01-09T09:46:33.586Z,53.39
2024-01-09T09:49:01.766Z,53.32
2024-01-09T09:51:29.621Z,53.25
2024-01-09T09:53:57.305Z,53.12
2024-01-09T09:56:25.161Z,53.13
2024-01-09T09:58:52.911Z,53.17
2024-01-09T10:01:20.660Z,52.90
2024-01-09T10:03:48.407Z,53.13
2024-01-09T10:06:16.377Z,53.10
2024-01-09T10:08:44.528Z,53.07
2024-01-09T10:11:12.146Z,52.97
2024-01-09T10:13:39.713Z,53.08
2024-01-09T10:16:07.259Z,53.39
2024-01-09T10:18:35.377Z,53.31
2024-01-09T10:21:03.149Z,53.10
2024-01-09T10:23:30.796Z,53.20
2024-01-09T10:25:58.530Z,55.42
2024-01-09T10:28:26.104Z,59.14
2024-01-09T10:30:54.269Z,57.85
2024-01-09T10:33:22.206Z,55.91
2024-01-09T10:35:50.032Z,55.57
2024-01-09T10:38:17.699Z,56.49
2024-01-09T10:40:45.523Z,58.93
2024-01-09T10:43:13.063Z,56.16
2024-01-09T10:45:40.526Z,56.78
2024-01-09T10:48:08.337Z,54.77
2024-01-09T10:50:36.281Z,54.42
2024-01-09T10:53:04.229Z,53.88
2024-01-09T10:55:31.782Z,53.58
2024-01-09T10:57:59.336Z,53.43
2024-01-09T11:00:26.905Z,53.45
2024-01-09T11:02:54.598Z,53.21
2024-01-09T11:05:22.394Z,53.04
2024-01-09T11:07:50.087Z,52.75
2024-01-09T11:10:17.872Z,53.07
2024-01-09T11:12:45.524Z,53.38
2024-01-09T11:15:13.485Z,53.45
2024-01-09T11:17:41.228Z,53.57
2024-01-09T11:20:08.903Z,53.78
2024-01-09T11:22:36.580Z,53.61
2024-01-09T11:25:04.138Z,53.71
2024-01-09T11:27:31.712Z,53.81
2024-01-09T11:29:59.368Z,53.93
2024-01-09T11:32:27.067Z,56.31
2024-01-09T11:34:54.876Z,56.95
2024-01-09T11:37:22.501Z,58.94
2024-01-09T11:39:50.193Z,56.55
2024-01-09T11:42:17.755Z,55.76
2024-01-09T11:44:45.441Z,55.14
2024-01-09T11:47:13.012Z,54.49
2024-01-09T11:49:40.749Z,54.33
2024-01-09T11:52:08.625Z,54.20
2024-01-09T11:54:36.270Z,54.23
2024-01-09T11:57:04.034Z,54.48
2024-01-09T11:59:31.534Z,54.51
2024-01-09T12:01:59.283Z,54.57
2024-01-09T12:04:26.889Z,55.06
2024-01-09T12:06:54.742Z,55.09
2024-01-09T12:09:22.330Z,55.06
2024-01-09T12:11:50.011Z,55.36
2024-01-09T12:14:17.702Z,55.50
2024-01-09T12:16:45.839Z,55.57
2024-01-09T12:19:13.529Z,55.44
2024-01-09T12:21:41.357Z,55.94
2024-01-09T12:24:21.348Z,56.19
2024-01-09T12:26:52.053Z,57.35
2024-01-09T12:29:19.751Z,57.16
2024-01-09T12:31:47.550Z,58.92
2024-01-09T12:34:15.412Z,58.99
2024-01-09T12:36:43.518Z,57.34
2024-01-09T12:39:11.094Z,56.60
2024-01-09T12:41:38.786Z,56.70
2024-01-09T12:44:06.490Z,56.38
2024-01-09T12:46:34.053Z,56.76
2024-01-09T12:49:03.332Z,56.16
2024-01-09T12:51:31.422Z,56.24
2024-01-09T12:53:59.204Z,57.46
2024-01-09T12:56:27.178Z,56.59
2024-01-09T12:58:54.717Z,56.11
2024-01-09T13:01:22.377Z,55.91
2024-01-09T13:03:50.087Z,55.86
2024-01-09T13:06:18.044Z,55.91
2024-01-09T13:08:45.879Z,56.15
2024-01-09T13:11:13.537Z,55.70
2024-01-09T13:13:41.076Z,55.79
2024-01-09T13:16:09.063Z,55.72
2024-01-09T13:18:36.882Z,55.80
2024-01-09T13:21:05.012Z,57.14
2024-01-09T13:26:03.588Z,57.62
2024-01-09T13:28:31.497Z,57.03
2024-01-09T13:30:59.801Z,58.51
2024-01-09T13:33:28.170Z,57.46
2024-01-09T13:35:56.194Z,57.16
2024-01-09T13:38:24.143Z,57.31
2024-01-09T13:40:51.851Z,57.12
2024-01-09T13:43:19.475Z,56.87
2024-01-09T13:45:47.338Z,57.01
2024-01-09T13:48:15.089Z,56.71
2024-01-09T13:53:13.320Z,56.59
2024-01-09T13:55:40.777Z,56.75
2024-01-09T13:58:08.414Z,56.80
2024-01-09T14:00:36.290Z,57.07
2024-01-09T14:03:04.010Z,56.93
2024-01-09T14:05:31.787Z,57.74
2024-01-09T14:07:59.597Z,57.51
2024-01-09T14:10:27.285Z,57.04
2024-01-09T14:12:55.092Z,57.32
2024-01-09T14:15:22.786Z,58.45
2024-01-09T14:17:50.338Z,59.37
2024-01-09T14:20:18.011Z,59.46
2024-01-09T14:22:45.715Z,58.56
2024-01-09T14:25:13.723Z,58.52
2024-01-09T14:27:41.265Z,58.37
2024-01-09T14:30:08.978Z,58.37
2024-01-09T14:32:36.795Z,58.62
2024-01-09T14:35:04.628Z,58.90
2024-01-09T14:37:32.339Z,59.40
2024-01-09T14:40:00.000Z,59.92
2024-01-09T14:42:27.644Z,60.10
2024-01-09T14:44:55.718Z,60.38
2024-01-09T14:47:23.480Z,60.91
2024-01-09T14:49:51.171Z,61.09
2024-01-09T14:52:18.805Z,60.99
2024-01-09T14:54:46.372Z,60.90
2024-01-09T14:57:13.921Z,61.02
2024-01-09T14:59:41.477Z,61.20
2024-01-09T15:02:09.110Z,61.36
2024-01-09T15:04:37.228Z,61.77
2024-01-09T15:07:05.078Z,62.29
2024-01-09T15:09:32.643Z,62.76
2024-01-09T15:12:00.329Z,62.99
2024-01-09T15:14:27.857Z,63.44
2024-01-09T15:16:55.434Z,63.81
2024-01-09T15:19:23.022Z,63.91
2024-01-09T15:21:50.843Z,64.03
2024-01-09T15:24:18.507Z,64.07
2024-01-09T15:26:46.169Z,63.98
2024-01-09T15:29:13.783Z,64.11
2024-01-09T15:31:41.668Z,63.94
2024-01-09T15:34:09.562Z,63.87
2024-01-09T15:36:37.226Z,63.63
2024-01-09T15:39:04.882Z,63.48
2024-01-09T15:41:32.546Z,63.56
2024-01-09T15:44:00.257Z,63.59
2024-01-09T15:46:29.264Z,63.51
2024-01-09T15:48:57.014Z,63.62
2024-01-09T15:51:24.721Z,63.70
2024-01-09T15:53:52.387Z,63.87
2024-01-09T15:56:19.938Z,64.14
2024-01-09T15:58:47.530Z,64.11
2024-01-09T16:01:15.205Z,64.58
2024-01-09T16:03:42.936Z,64.58
2024-01-09T16:06:16.668Z,64.58
2024-01-09T16:08:44.401Z,64.69
2024-01-09T16:11:12.065Z,64.58
2024-01-09T16:13:39.963Z,64.55
2024-01-09T16:16:07.584Z,64.58
2024-01-09T16:18:35.294Z,64.32
2024-01-09T16:21:03.003Z,64.30
2024-01-09T16:23:30.558Z,64.00
2024-01-09T16:25:58.537Z,63.81
2024-01-09T16:28:26.241Z,63.39
2024-01-09T16:30:53.925Z,63.57
2024-01-09T16:33:22.300Z,63.69
2024-01-09T16:35:51.121Z,64.00
2024-01-09T16:38:18.688Z,64.11
2024-01-09T16:40:46.300Z,64.33
2024-01-09T16:43:13.998Z,64.33
2024-01-09T16:45:41.365Z,64.26
2024-01-09T16:48:09.467Z,64.28
2024-01-09T16:50:37.318Z,64.08
2024-01-09T16:53:05.035Z,64.12
2024-01-09T16:55:32.799Z,64.27
2024-01-09T16:58:00.487Z,64.36
2024-01-09T17:00:28.155Z,64.43
2024-01-09T17:02:55.722Z,64.15
2024-01-09T17:05:23.431Z,64.13
2024-01-09T17:07:51.328Z,64.17
2024-01-09T17:10:19.309Z,64.39
2024-01-09T17:12:46.966Z,64.16
2024-01-09T17:15:14.515Z,64.06
2024-01-09T17:17:42.372Z,63.97
2024-01-09T17:20:10.317Z,64.09
2024-01-09T17:22:37.969Z,63.90
2024-01-09T17:25:05.671Z,63.64
2024-01-09T17:27:33.241Z,63.66
2024-01-09T17:30:00.814Z,63.84
2024-01-09T17:32:28.771Z,63.74
2024-01-09T17:34:56.638Z,64.02
2024-01-09T17:37:24.310Z,64.08
2024-01-09T17:39:51.895Z,63.82
2024-01-09T17:42:19.512Z,63.80
2024-01-09T17:44:47.276Z,63.74
2024-01-09T17:47:15.000Z,63.70
2024-01-09T17:49:42.818Z,63.75
2024-01-09T17:52:10.773Z,63.85
2024-01-09T17:54:38.423Z,63.68
2024-01-09T17:57:05.994Z,63.77
2024-01-09T17:59:33.437Z,63.85
2024-01-09T18:02:01.036Z,63.97
2024-01-09T18:04:28.814Z,64.00
2024-01-09T18:06:56.532Z,63.56
2024-01-09T18:09:24.099Z,63.63
2024-01-09T18:11:51.764Z,63.41
2024-01-09T18:14:19.662Z,63.41
2024-01-09T18:16:47.511Z,63.53
2024-01-09T18:19:15.110Z,63.65
2024-01-09T18:21:42.796Z,63.60
2024-01-09T18:24:10.480Z,63.37
2024-01-09T18:26:50.227Z,62.88
2024-01-09T18:29:22.771Z,63.00
2024-01-09T18:31:51.113Z,63.19
2024-01-09T18:34:19.118Z,63.18
2024-01-09T18:36:46.903Z,63.29
2024-01-09T18:39:14.477Z,63.36
2024-01-09T18:41:42.017Z,63.31
2024-01-09T18:44:09.734Z,63.07
2024-01-09T18:46:37.562Z,62.94
2024-01-09T18:49:05.118Z,62.54
2024-01-09T18:51:32.768Z,62.53
2024-01-09T18:54:00.678Z,62.12
2024-01-09T18:56:28.413Z,62.00
2024-01-09T18:58:55.971Z,61.91
2024-01-09T19:01:23.704Z,61.98
2024-01-09T19:03:51.375Z,61.96
2024-01-09T19:06:19.038Z,61.96
2024-01-09T19:08:46.590Z,62.01
2024-01-09T19:11:14.131Z,61.74
2024-01-09T19:13:42.202Z,61.39
2024-01-09T19:16:09.999Z,61.15
2024-01-09T19:18:37.705Z,60.66
2024-01-09T19:21:05.409Z,61.02
2024-01-09T19:23:32.977Z,61.27
2024-01-09T19:26:00.535Z,61.67
2024-01-09T19:28:28.224Z,61.65
2024-01-09T19:30:55.910Z,61.85
2024-01-09T19:33:23.734Z,61.85
2024-01-09T19:35:51.383Z,61.62
2024-01-09T19:38:19.001Z,61.58
2024-01-09T19:40:46.748Z,61.38
2024-01-09T19:43:14.368Z,61.49
2024-01-09T19:45:41.820Z,61.45
2024-01-09T19:48:09.487Z,61.77
2024-01-09T19:50:37.166Z,61.77
2024-01-09T19:53:04.762Z,61.73
2024-01-09T19:55:32.354Z,61.68
2024-01-09T19:58:00.040Z,61.59
2024-01-09T20:00:27.712Z,61.51
2024-01-09T20:02:55.251Z,61.36
2024-01-09T20:05:23.078Z,61.53
2024-01-09T20:07:50.785Z,61.43
2024-01-09T20:10:18.433Z,61.41
2024-01-09T20:12:46.098Z,61.59
2024-01-09T20:15:13.760Z,61.70
2024-01-09T20:17:41.341Z,61.64
2024-01-09T20:20:09.532Z,61.69
2024-01-09T20:22:37.160Z,61.55
2024-01-09T20:25:04.814Z,61.43
2024-01-09T20:27:32.470Z,61.55
2024-01-09T20:30:00.066Z,61.29
2024-01-09T20:32:27.777Z,61.22
2024-01-09T20:34:55.486Z,60.86
2024-01-09T20:37:23.287Z,60.03
2024-01-09T20:39:50.885Z,60.04
2024-01-09T20:42:18.852Z,60.25
2024-01-09T20:44:46.403Z,60.12
2024-01-09T20:47:14.134Z,60.22
2024-01-09T20:49:41.934Z,60.34
2024-01-09T20:52:09.713Z,60.73
2024-01-09T20:54:37.262Z,61.06
2024-01-09T20:57:04.933Z,61.13
2024-01-09T20:59:32.476Z,61.21
2024-01-09T21:02:00.608Z,60.96
2024-01-09T21:04:28.252Z,60.81
2024-01-09T21:06:55.875Z,60.82
2024-01-09T21:09:23.430Z,60.73
2024-01-09T21:11:51.095Z,60.77
2024-01-09T21:14:18.681Z,60.94
2024-01-09T21:16:46.435Z,60.87
2024-01-09T21:19:14.159Z,60.69
2024-01-09T21:21:41.856Z,60.61
2024-01-09T21:24:09.801Z,60.59
2024-01-09T21:26:37.366Z,60.50
2024-01-09T21:29:05.234Z,60.38
2024-01-09T21:31:32.970Z,60.31
2024-01-09T21:34:00.816Z,59.98
2024-01-09T21:36:28.622Z,60.05
2024-01-09T21:38:56.286Z,60.22
2024-01-09T21:41:23.858Z,60.39
2024-01-09T21:43:51.534Z,60.46
2024-01-09T21:46:19.268Z,60.71
2024-01-09T21:48:46.909Z,60.62
2024-01-09T21:51:14.698Z,60.73
2024-01-09T21:53:42.264Z,60.62
2024-01-09T21:56:10.242Z,60.86
2024-01-09T21:58:38.110Z,61.05
2024-01-09T22:01:05.679Z,61.08
2024-01-09T22:03:35.892Z,61.01
2024-01-09T22:06:03.563Z,61.21
2024-01-09T22:08:31.088Z,61.13
2024-01-09T22:11:02.129Z,61.05
2024-01-09T22:13:31.898Z,61.04
2024-01-09T22:15:59.592Z,60.85
2024-01-09T22:18:27.329Z,60.91
2024-01-09T22:20:55.128Z,60.72
2024-01-09T22:23:22.762Z,60.49
2024-01-09T22:25:50.372Z,60.36
2024-01-09T22:28:18.421Z,59.97
2024-01-09T22:30:46.223Z,59.47
2024-01-09T22:33:14.114Z,59.24
2024-01-09T22:35:42.087Z,59.30
2024-01-09T22:38:09.909Z,59.29
2024-01-09T22:40:37.565Z,59.56
2024-01-09T22:43:05.203Z,59.66
2024-01-09T22:45:32.760Z,59.76
2024-01-09T22:48:00.746Z,59.39
2024-01-09T22:50:28.642Z,59.24
2024-01-09T22:52:56.684Z,59.31
2024-01-09T22:55:24.442Z,59.34
2024-01-09T22:57:52.199Z,59.59
2024-01-09T23:00:19.860Z,59.92
2024-01-09T23:02:47.523Z,60.03
2024-01-09T23:05:19.049Z,60.16
2024-01-09T23:07:47.272Z,59.97
2024-01-09T23:10:15.118Z,59.90
2024-01-09T23:12:43.079Z,59.87
2024-01-09T23:15:10.968Z,60.06
2024-01-09T23:17:38.933Z,60.16
2024-01-09T23:20:06.851Z,60.24
2024-01-09T23:22:34.700Z,60.17
2024-01-09T23:25:02.515Z,60.01
2024-01-09T23:27:30.174Z,59.97
2024-01-09T23:29:57.840Z,60.04
2024-01-09T23:32:25.595Z,60.26
2024-01-09T23:35:01.038Z,60.31
2024-01-09T23:37:30.262Z,60.27
2024-01-09T23:39:57.795Z,60.25
2024-01-09T23:42:25.349Z,60.12
2024-01-09T23:44:53.078Z,59.79
2024-01-09T23:47:20.859Z,59.45
2024-01-09T23:49:48.556Z,59.55
2024-01-09T23:52:16.097Z,59.17
2024-01-09T23:54:44.090Z,58.85
2024-01-09T23:57:12.749Z,58.66
2024-01-09T23:59:40.416Z,58.86
